createdAt,value
2019-05-03T00:04:12.001Z,8.249207
2019-05-03T00:09:34.144Z,8.098145
2019-05-03T00:14:56.893Z,8.128357
2019-05-03T00:20:19.647Z,8.067932
2019-05-03T00:25:42.334Z,8.057861
2019-05-03T00:31:05.891Z,8.03772
2019-05-03T00:36:28.607Z,7.816162
2019-05-03T00:41:52.296Z,7.765808
2019-05-03T00:47:15.975Z,7.634888
2019-05-03T00:52:39.680Z,7.524109
2019-05-03T00:58:03.256Z,7.443542
2019-05-03T01:03:25.980Z,7.524109
2019-05-03T01:08:49.394Z,7.554321
2019-05-03T01:14:12.083Z,7.503967
2019-05-03T01:19:35.800Z,7.443542
2019-05-03T01:24:59.385Z,7.503967
2019-05-03T01:30:22.592Z,7.453613
2019-05-03T01:35:45.758Z,7.362976
2019-05-03T01:41:08.642Z,7.322693
2019-05-03T01:46:32.140Z,7.302551
2019-05-03T01:51:55.750Z,7.322693
2019-05-03T01:57:18.409Z,7.332764
2019-05-03T02:02:41.957Z,7.211914
2019-05-03T02:08:03.770Z,7.191772
2019-05-03T02:13:26.437Z,7.211914
2019-05-03T02:18:49.127Z,7.16156
2019-05-03T02:24:11.973Z,7.010498
2019-05-03T02:29:35.810Z,7.010498
2019-05-03T02:34:58.453Z,6.970215
2019-05-03T02:40:24.525Z,6.929932
2019-05-03T02:45:45.642Z,6.859436
2019-05-03T02:51:07.192Z,6.829224
2019-05-03T02:56:29.819Z,6.960144
2019-05-03T03:01:55.423Z,6.990356
2019-05-03T03:07:15.261Z,7.000427
2019-05-03T03:12:39.809Z,6.90979
2019-05-03T03:18:02.428Z,6.899719
2019-05-03T03:23:26.231Z,6.809082
2019-05-03T03:28:48.858Z,6.577454
2019-05-03T03:34:11.539Z,6.728516
2019-05-03T03:39:36.046Z,6.718445
2019-05-03T03:44:58.469Z,6.597595
2019-05-03T03:50:21.112Z,6.577454
2019-05-03T03:55:45.801Z,6.456604
2019-05-03T04:01:06.764Z,6.53717
2019-05-03T04:06:29.406Z,6.607666
2019-05-03T04:11:52.075Z,6.53717
2019-05-03T04:17:15.370Z,6.214905
2019-05-03T04:22:39.047Z,5.993347
2019-05-03T04:28:05.488Z,5.953064
2019-05-03T04:33:26.852Z,5.77179
2019-05-03T04:38:47.951Z,5.580444
2019-05-03T04:44:10.588Z,5.65094
2019-05-03T04:49:36.157Z,5.832214
2019-05-03T04:54:56.927Z,5.600586
2019-05-03T05:00:20.539Z,5.52002
2019-05-03T05:05:45.250Z,5.661011
2019-05-03T05:11:10.008Z,5.852356
2019-05-03T05:16:30.069Z,6.053772
2019-05-03T05:21:55.011Z,6.114197
2019-05-03T05:27:17.427Z,6.164551
2019-05-03T05:32:40.020Z,6.295471
2019-05-03T05:38:04.336Z,6.396179
2019-05-03T05:43:25.560Z,6.637878
2019-05-03T05:48:48.970Z,6.859436
2019-05-03T05:54:11.611Z,6.869507
2019-05-03T05:59:35.008Z,6.940002
2019-05-03T06:04:56.922Z,6.929932
2019-05-03T06:10:19.561Z,7.010498
2019-05-03T06:15:44.746Z,7.121277
2019-05-03T06:21:05.952Z,7.342834
2019-05-03T06:26:28.554Z,7.503967
2019-05-03T06:31:52.217Z,7.584534
2019-05-03T06:37:14.892Z,8.128357
2019-05-03T06:42:50.936Z,8.490906
2019-05-03T06:48:03.114Z,9.155579
2019-05-03T06:53:25.719Z,8.521118
2019-05-03T06:58:48.402Z,8.239136
2019-05-03T07:04:11.038Z,8.370056
2019-05-03T07:09:35.324Z,8.863525
2019-05-03T07:14:56.286Z,9.266357
2019-05-03T07:20:18.895Z,9.165649
2019-05-03T07:25:41.707Z,9.115295
2019-05-03T07:31:04.755Z,8.198853
2019-05-03T07:36:28.407Z,8.712463
2019-05-03T07:41:50.601Z,9.165649
2019-05-03T07:47:14.825Z,9.628906
2019-05-03T07:52:36.994Z,9.669189
2019-05-03T07:57:59.783Z,9.850464
2019-05-03T08:03:24.317Z,10.102234
2019-05-03T08:08:45.851Z,10.243225
2019-05-03T08:14:08.452Z,10.092163
2019-05-03T08:19:32.041Z,9.810181
2019-05-03T08:24:55.462Z,9.729614
2019-05-03T08:30:18.553Z,10.102234
2019-05-03T08:35:42.382Z,10.505066
2019-05-03T08:41:05.393Z,10.202942
2019-05-03T08:46:27.911Z,9.437561
2019-05-03T08:51:50.650Z,9.558411
2019-05-03T08:57:14.931Z,10.364075
2019-05-03T09:02:35.946Z,10.354004
2019-05-03T09:07:58.566Z,10.67627
2019-05-03T09:13:21.687Z,11.361084
2019-05-03T09:18:45.396Z,10.988464
2019-05-03T09:24:07.978Z,11.572571
2019-05-03T09:29:40.938Z,12.06604
2019-05-03T09:34:55.011Z,10.948181
2019-05-03T09:40:16.911Z,10.172729
2019-05-03T09:45:39.664Z,10.092163
2019-05-03T09:51:02.242Z,10.223083
2019-05-03T09:56:25.895Z,10.384216
2019-05-03T10:01:48.609Z,11.018677
2019-05-03T10:07:11.476Z,11.643066
2019-05-03T10:12:34.105Z,12.398376
2019-05-03T10:17:56.805Z,11.109314
2019-05-03T10:23:20.752Z,10.68634
2019-05-03T10:28:43.652Z,10.202942
2019-05-03T10:34:06.334Z,10.263367
2019-05-03T10:39:28.936Z,10.575562
2019-05-03T10:44:51.546Z,11.69342
2019-05-03T10:50:15.561Z,11.210022
2019-05-03T10:55:37.911Z,10.837402
2019-05-03T11:01:00.553Z,11.119385
2019-05-03T11:06:25.373Z,10.746765
2019-05-03T11:11:45.873Z,11.028748
2019-05-03T11:17:09.568Z,12.126465
2019-05-03T11:22:31.173Z,13.657227
2019-05-03T11:27:55.178Z,12.227173
2019-05-03T11:33:16.464Z,11.31073
2019-05-03T11:38:39.092Z,12.7005
2019-05-03T11:44:01.715Z,13.979492
2019-05-03T11:49:25.421Z,12.539368
2019-05-03T11:54:48.192Z,11.824341
2019-05-03T12:00:10.860Z,11.925049
2019-05-03T12:05:33.501Z,13.868713
2019-05-03T12:11:00.690Z,13.757935
2019-05-03T12:16:26.649Z,12.247314
2019-05-03T12:21:45.306Z,15.84259
2019-05-03T12:27:06.336Z,13.093262
2019-05-03T12:32:28.967Z,12.116394
2019-05-03T12:37:51.575Z,12.358093
2019-05-03T12:43:14.934Z,14.825439
2019-05-03T12:48:35.875Z,15.490112
2019-05-03T12:53:58.604Z,13.526306
2019-05-03T12:59:21.833Z,12.327881
2019-05-03T13:04:44.719Z,12.368164
2019-05-03T13:10:07.116Z,12.660217
2019-05-03T13:15:30.713Z,13.425598
2019-05-03T13:20:55.565Z,14.0802
2019-05-03T13:26:16.210Z,12.307739
2019-05-03T13:31:39.035Z,11.663208
2019-05-03T13:37:02.666Z,11.421509
2019-05-03T13:42:25.319Z,11.330872
2019-05-03T13:47:49.134Z,11.492004
2019-05-03T13:53:13.377Z,11.773987
2019-05-03T13:58:36.145Z,11.461792
2019-05-03T14:03:58.786Z,11.260376
2019-05-03T14:09:22.180Z,12.619934
2019-05-03T14:14:45.358Z,13.173828
2019-05-03T14:20:08.447Z,12.428589
2019-05-03T14:25:31.031Z,12.327881
2019-05-03T14:30:54.748Z,11.884766
2019-05-03T14:36:18.955Z,11.391296
2019-05-03T14:41:46.313Z,11.300659
2019-05-03T14:47:06.215Z,11.723633
2019-05-03T14:52:29.670Z,12.207031
2019-05-03T14:57:54.899Z,12.398376
2019-05-03T15:03:15.775Z,11.965332
2019-05-03T15:08:38.446Z,11.955261
2019-05-03T15:14:01.124Z,12.670288
2019-05-03T15:19:25.761Z,12.579651
2019-05-03T15:24:48.413Z,11.723633
2019-05-03T15:30:11.027Z,11.743774
2019-05-03T15:35:35.081Z,11.280518
2019-05-03T15:40:57.473Z,10.92804
2019-05-03T15:46:20.094Z,10.68634
2019-05-03T15:51:44.467Z,11.079102
2019-05-03T15:57:05.399Z,11.300659
2019-05-03T16:02:28.004Z,11.391296
2019-05-03T16:07:51.485Z,11.079102
2019-05-03T16:13:14.384Z,11.079102
2019-05-03T16:18:36.754Z,10.93811
2019-05-03T16:23:59.563Z,10.575562
2019-05-03T16:29:22.201Z,10.615845
2019-05-03T16:34:45.416Z,10.394287
2019-05-03T16:40:08.996Z,10.263367
2019-05-03T16:45:31.683Z,10.283508
2019-05-03T16:50:54.282Z,10.323792
2019-05-03T16:56:17.267Z,10.384216
2019-05-03T17:01:39.510Z,10.68634
2019-05-03T17:07:02.174Z,10.515137
2019-05-03T17:12:25.900Z,10.132446
2019-05-03T17:17:48.436Z,10.041809
2019-05-03T17:23:11.068Z,10.061951
2019-05-03T17:28:35.319Z,9.880676
2019-05-03T17:33:56.900Z,9.749756
2019-05-03T17:39:18.981Z,9.628906
2019-05-03T17:44:41.590Z,9.497986
2019-05-03T17:50:05.280Z,9.417419
2019-05-03T17:55:27.788Z,9.397278
2019-05-03T18:00:50.396Z,9.336853
2019-05-03T18:06:14.865Z,9.266357
2019-05-03T18:11:35.800Z,9.155579
2019-05-03T18:16:58.574Z,9.004517
2019-05-03T18:22:21.251Z,8.944092
2019-05-03T18:27:44.555Z,8.863525
2019-05-03T18:33:06.602Z,8.803101
2019-05-03T18:38:29.249Z,8.762817
2019-05-03T18:43:54.618Z,8.702393
2019-05-03T18:49:18.260Z,8.67218
2019-05-03T18:54:41.458Z,8.611755
2019-05-03T19:00:07.876Z,8.601685
2019-05-03T19:05:26.691Z,8.551331
2019-05-03T19:10:49.446Z,8.430481
2019-05-03T19:16:11.999Z,8.319702
2019-05-03T19:21:34.998Z,8.218994
2019-05-03T19:26:58.369Z,8.098145
2019-05-03T19:32:21.992Z,8.057861
2019-05-03T19:37:46.522Z,8.017578
2019-05-03T19:43:08.557Z,7.906799
2019-05-03T19:48:31.215Z,7.816162
2019-05-03T19:53:55.062Z,7.765808
2019-05-03T19:59:16.658Z,7.655029
2019-05-03T20:04:39.667Z,7.655029
2019-05-03T20:10:02.297Z,7.624817
2019-05-03T20:15:24.894Z,7.524109
2019-05-03T20:20:47.519Z,7.41333
2019-05-03T20:26:10.128Z,7.302551
2019-05-03T20:31:32.770Z,7.181702
2019-05-03T20:36:55.420Z,7.000427
2019-05-03T20:42:19.442Z,6.869507
2019-05-03T20:47:42.020Z,6.77887
2019-05-03T20:53:05.658Z,6.758728
2019-05-03T20:58:27.703Z,6.567383
2019-05-03T21:03:50.492Z,6.5271
2019-05-03T21:09:14.791Z,6.476746
2019-05-03T21:14:36.837Z,6.396179
2019-05-03T21:19:59.577Z,6.386108
2019-05-03T21:25:22.282Z,6.386108
2019-05-03T21:30:45.414Z,6.345825
2019-05-03T21:36:08.421Z,6.295471
2019-05-03T21:41:32.703Z,6.325684
2019-05-03T21:46:55.529Z,6.295471
2019-05-03T21:52:18.992Z,6.265259
2019-05-03T21:57:41.667Z,6.245117
2019-05-03T22:03:05.193Z,6.174622
2019-05-03T22:08:28.623Z,6.114197
2019-05-03T22:13:51.240Z,6.104126
2019-05-03T22:19:17.870Z,6.104126
2019-05-03T22:24:38.477Z,6.104126
2019-05-03T22:30:01.149Z,6.134338
2019-05-03T22:35:25.129Z,6.02356
2019-05-03T22:40:48.351Z,5.932922
2019-05-03T22:46:11.881Z,5.812073
2019-05-03T22:51:34.674Z,5.78186
2019-05-03T22:56:58.151Z,5.731506
2019-05-03T23:02:20.791Z,5.701294
2019-05-03T23:07:44.206Z,5.580444
2019-05-03T23:13:06.061Z,5.590515
2019-05-03T23:18:28.707Z,5.550232
2019-05-03T23:23:51.342Z,5.449524
2019-05-03T23:29:14.800Z,5.419312
2019-05-03T23:34:38.445Z,5.318604
2019-05-03T23:40:01.163Z,5.298462
2019-05-03T23:45:25.516Z,5.368958
2019-05-03T23:50:48.289Z,5.26825
2019-05-03T23:56:11.564Z,5.26825
